Time;durP1;ratioP1;P1;durP2;ratioP2;P2;SDS_P1;SDS_P2;PMS_P1;PMS_P2;Temp;Humidity;BMP_temperature;BMP_pressure;BME280_temperature;BME280_humidity;BME280_pressure;Samples;Min_cycle;Max_cycle;Signal;HPM_P1;HPM_P2
2023/05/04 00:01:54;;;;;;;;;;;;;;;27.86;28.39;98961.00;4990492;28;19922;-88
2023/05/04 00:04:20;;;;;;;;;;;;;;;27.91;28.38;98956.88;4984420;28;19922;-87
2023/05/04 00:06:46;;;;;;;;;;;;;;;27.95;28.55;98957.56;4988016;28;19929;-87
2023/05/04 00:09:14;;;;;;;;;;;;;;;27.95;27.92;98961.19;4986898;28;19925;-87
2023/05/04 00:11:40;;;;;;;;;;;;;;;27.91;27.93;98957.63;4994036;28;19929;-87
2023/05/04 00:14:06;;;;;;;;;;;;;;;27.80;28.85;98961.94;4995450;28;19932;-87
2023/05/04 00:16:33;;;;;;;;;;;;;;;27.64;28.79;98961.91;4981853;28;20339;-87
2023/05/04 00:18:59;;;;;;;;;;;;;;;27.68;28.28;98957.78;4996069;28;20013;-87
2023/05/04 00:21:25;;;;;;;;;;;;;;;27.57;28.19;98957.22;4988095;28;19969;-87
2023/05/04 00:23:51;;;;;;;;;;;;;;;27.39;28.69;98959.66;4978098;28;20382;-87
2023/05/04 00:26:17;;;;;;;;;;;;;;;27.42;28.96;98950.34;4992549;28;20427;-87
2023/05/04 00:28:43;;;;;;;;;;;;;;;27.26;29.19;98955.84;4996019;28;20008;-87
2023/05/04 00:31:09;;;;;;;;;;;;;;;27.27;28.95;98952.63;4996932;28;19918;-88
2023/05/04 00:33:35;;;;;;;;;;;;;;;27.45;28.81;98945.81;4990239;28;20384;-87
2023/05/04 00:36:02;;;;;;;;;;;;;;;27.43;28.61;98943.44;5000895;28;20015;-88
2023/05/04 00:38:28;;;;;;;;;;;;;;;27.28;28.23;98944.97;4990273;28;19922;-88
2023/05/04 00:40:56;;;;;;;;;;;;;;;26.87;29.47;98948.19;4984703;28;19932;-87
2023/05/04 00:43:22;;;;;;;;;;;;;;;27.02;29.66;98935.44;5001570;28;19921;-87
2023/05/04 00:45:48;;;;;;;;;;;;;;;27.36;29.21;98940.75;4995453;28;19942;-87
2023/05/04 00:48:14;;;;;;;;;;;;;;;27.57;28.75;98937.50;4999432;28;19937;-87
2023/05/04 00:50:40;;;;;;;;;;;;;;;27.65;28.61;98936.09;5014130;28;19968;-87
2023/05/04 00:53:08;;;;;;;;;;;;;;;27.74;28.12;98938.31;4996291;28;19925;-87
2023/05/04 00:55:36;;;;;;;;;;;;;;;27.55;28.47;98939.94;4985607;28;20361;-87
2023/05/04 00:58:02;;;;;;;;;;;;;;;27.35;28.85;98944.81;4997469;28;19992;-87
2023/05/04 01:00:28;;;;;;;;;;;;;;;27.50;28.56;98936.84;5004488;28;19925;-87
2023/05/04 01:02:54;;;;;;;;;;;;;;;27.52;28.73;98931.56;4999775;28;20340;-87
2023/05/04 01:05:20;;;;;;;;;;;;;;;27.48;28.76;98928.81;5000716;28;19921;-87
2023/05/04 01:08:05;;;;;;;;;;;;;;;27.64;28.77;98936.53;5007949;28;19965;-88
2023/05/04 01:10:38;;;;;;;;;;;;;;;27.75;28.63;98937.09;4990114;28;20285;-88
2023/05/04 01:13:07;;;;;;;;;;;;;;;27.85;28.60;98941.69;4986136;28;19921;-88
2023/05/04 01:15:34;;;;;;;;;;;;;;;27.62;28.62;98933.34;5006801;28;19929;-88
2023/05/04 01:18:00;;;;;;;;;;;;;;;27.45;29.04;98943.78;4998112;28;20009;-88
2023/05/04 01:20:26;;;;;;;;;;;;;;;27.42;28.89;98950.34;4990307;28;20024;-87
2023/05/04 01:22:52;;;;;;;;;;;;;;;27.57;28.65;98950.78;4987631;28;20005;-87
2023/05/04 01:25:18;;;;;;;;;;;;;;;27.66;28.53;98943.31;5000495;28;20350;-88
2023/05/04 01:28:07;;;;;;;;;;;;;;;27.68;28.42;98945.72;4982622;28;20370;-87
2023/05/04 01:30:42;;;;;;;;;;;;;;;27.80;28.56;98940.16;4975512;28;19984;-87
2023/05/04 01:33:08;;;;;;;;;;;;;;;27.87;28.31;98942.03;4975680;28;19933;-88
2023/05/04 01:35:34;;;;;;;;;;;;;;;27.81;28.32;98940.97;4979049;28;19928;-88
2023/05/04 01:38:01;;;;;;;;;;;;;;;27.87;28.22;98930.72;4981020;28;19921;-87
2023/05/04 01:40:27;;;;;;;;;;;;;;;27.63;28.70;98932.94;4976270;28;20127;-87
2023/05/04 01:42:53;;;;;;;;;;;;;;;27.41;28.20;98917.69;4972121;28;19925;-87
2023/05/04 01:45:19;;;;;;;;;;;;;;;27.19;28.90;98928.59;4980252;28;19929;-87
2023/05/04 01:47:45;;;;;;;;;;;;;;;27.40;28.74;98922.53;4979985;28;20037;-87
2023/05/04 01:50:11;;;;;;;;;;;;;;;27.48;28.58;98923.19;4974950;28;20053;-87
2023/05/04 01:52:37;;;;;;;;;;;;;;;27.40;28.97;98927.38;4971442;28;19922;-86
2023/05/04 01:55:03;;;;;;;;;;;;;;;27.55;28.76;98925.03;4981410;28;19933;-87
2023/05/04 01:57:29;;;;;;;;;;;;;;;27.73;28.19;98928.25;4965638;28;19925;-87
2023/05/04 01:59:55;;;;;;;;;;;;;;;27.62;28.78;98930.53;4968435;28;19945;-87
2023/05/04 02:02:22;;;;;;;;;;;;;;;27.37;28.55;98920.63;4976711;28;19930;-87
2023/05/04 02:04:48;;;;;;;;;;;;;;;27.11;29.45;98934.84;4974146;28;20378;-87
2023/05/04 02:07:14;;;;;;;;;;;;;;;27.20;28.86;98926.59;4972342;28;19972;-87
2023/05/04 02:09:40;;;;;;;;;;;;;;;27.37;28.21;98929.06;4978934;28;20020;-87
2023/05/04 02:12:06;;;;;;;;;;;;;;;27.20;29.07;98932.22;4966107;28;19926;-87
2023/05/04 02:14:32;;;;;;;;;;;;;;;27.42;27.96;98926.97;4990236;28;20385;-87
2023/05/04 02:16:58;;;;;;;;;;;;;;;27.29;28.67;98930.41;4986496;28;20297;-87
2023/05/04 02:19:24;;;;;;;;;;;;;;;27.39;28.77;98935.06;5004345;28;19924;-88
2023/05/04 02:21:51;;;;;;;;;;;;;;;27.52;28.27;98921.06;4982461;28;19922;-87
2023/05/04 02:24:17;;;;;;;;;;;;;;;27.21;29.03;98922.56;4995202;28;19924;-88
2023/05/04 02:26:43;;;;;;;;;;;;;;;27.35;28.47;98905.34;4991971;28;20354;-87
2023/05/04 02:29:10;;;;;;;;;;;;;;;27.31;28.25;98911.03;4994181;28;20016;-87
2023/05/04 02:31:36;;;;;;;;;;;;;;;27.17;29.09;98907.72;4991412;28;20012;-88
2023/05/04 02:34:02;;;;;;;;;;;;;;;27.35;28.85;98908.16;4983781;28;19926;-88
2023/05/04 02:36:28;;;;;;;;;;;;;;;27.51;28.35;98907.41;4984427;28;19926;-88
2023/05/04 02:38:54;;;;;;;;;;;;;;;27.33;28.36;98904.94;4972520;28;19918;-87
2023/05/04 02:41:20;;;;;;;;;;;;;;;27.17;28.63;98910.53;4992397;28;19922;-88
2023/05/04 02:43:46;;;;;;;;;;;;;;;27.01;29.05;98914.09;4985858;28;19932;-88
2023/05/04 02:46:12;;;;;;;;;;;;;;;27.06;29.04;98913.59;5004704;28;20003;-87
2023/05/04 02:48:38;;;;;;;;;;;;;;;27.09;28.19;98906.28;4996612;28;19964;-88
2023/05/04 02:51:05;;;;;;;;;;;;;;;26.63;29.37;98910.78;5013046;28;19929;-88
2023/05/04 02:53:31;;;;;;;;;;;;;;;26.65;29.41;98907.56;5006881;28;19926;-87
2023/05/04 02:55:57;;;;;;;;;;;;;;;26.84;29.46;98911.66;4988771;28;19971;-87
2023/05/04 02:58:23;;;;;;;;;;;;;;;26.77;29.80;98914.63;5010720;28;20441;-88
2023/05/04 03:00:52;;;;;;;;;;;;;;;27.03;28.76;98908.81;4991180;28;19930;-88
2023/05/04 03:03:18;;;;;;;;;;;;;;;27.01;29.30;98908.47;5010389;28;20451;-87
2023/05/04 03:05:44;;;;;;;;;;;;;;;27.12;28.60;98905.44;5012797;28;19922;-87
2023/05/04 03:08:10;;;;;;;;;;;;;;;26.96;29.11;98906.16;5001326;28;20017;-88
2023/05/04 03:10:36;;;;;;;;;;;;;;;26.90;28.74;98912.72;4998109;28;19925;-87
2023/05/04 03:13:04;;;;;;;;;;;;;;;26.78;28.96;98904.91;5005170;28;19922;-88
2023/05/04 03:15:31;;;;;;;;;;;;;;;27.00;28.26;98904.03;5009234;28;19917;-88
2023/05/04 03:17:57;;;;;;;;;;;;;;;26.09;30.06;98917.81;4994586;28;19929;-88
2023/05/04 03:20:23;;;;;;;;;;;;;;;25.99;30.47;98919.56;4995792;28;20305;-87
2023/05/04 03:22:49;;;;;;;;;;;;;;;26.08;30.13;98919.81;4984686;28;20408;-87
2023/05/04 03:25:15;;;;;;;;;;;;;;;26.37;29.16;98928.56;5005642;28;19926;-87
2023/05/04 03:27:41;;;;;;;;;;;;;;;25.78;30.98;98928.34;4996359;28;19973;-87
2023/05/04 03:30:08;;;;;;;;;;;;;;;26.02;30.38;98932.75;4981662;28;20370;-87
2023/05/04 03:32:34;;;;;;;;;;;;;;;26.02;30.43;98932.75;4989936;28;19921;-87
2023/05/04 03:35:00;;;;;;;;;;;;;;;26.04;30.25;98926.72;5002277;28;19930;-87
2023/05/04 03:37:26;;;;;;;;;;;;;;;26.20;30.58;98923.28;4992268;28;19921;-87
2023/05/04 03:39:52;;;;;;;;;;;;;;;26.57;29.64;98923.00;4991165;28;19930;-87
2023/05/04 03:42:18;;;;;;;;;;;;;;;26.61;30.19;98930.16;4997136;28;19921;-87
2023/05/04 03:44:45;;;;;;;;;;;;;;;26.77;29.27;98934.34;4983344;28;19922;-87
2023/05/04 03:47:11;;;;;;;;;;;;;;;26.71;29.63;98925.53;4994943;28;19975;-87
2023/05/04 03:49:37;;;;;;;;;;;;;;;26.59;29.84;98929.00;4997728;28;20024;-86
2023/05/04 03:52:03;;;;;;;;;;;;;;;26.66;30.22;98928.84;4997745;28;20387;-86
2023/05/04 03:54:29;;;;;;;;;;;;;;;26.96;29.45;98925.06;4992812;28;20041;-87
2023/05/04 03:56:55;;;;;;;;;;;;;;;27.18;29.66;98921.41;4982663;28;19926;-87
2023/05/04 03:59:21;;;;;;;;;;;;;;;27.43;28.75;98920.88;4994093;28;19929;-87
2023/05/04 04:01:47;;;;;;;;;;;;;;;27.00;28.69;98931.47;4993112;28;19918;-88
2023/05/04 04:04:13;;;;;;;;;;;;;;;25.37;30.99;98928.50;4982753;28;19929;-88
2023/05/04 04:06:40;;;;;;;;;;;;;;;25.64;30.77;98930.56;4994289;28;20381;-88
2023/05/04 04:09:06;;;;;;;;;;;;;;;26.18;30.28;98942.63;4987802;28;19969;-87
2023/05/04 04:11:32;;;;;;;;;;;;;;;26.27;29.98;98928.78;4995112;28;19918;-88
2023/05/04 04:13:58;;;;;;;;;;;;;;;26.53;29.05;98937.16;5002020;28;20384;-87
2023/05/04 04:16:24;;;;;;;;;;;;;;;25.87;31.44;98931.41;4991144;28;20519;-88
2023/05/04 04:18:50;;;;;;;;;;;;;;;26.32;30.04;98929.09;4990771;28;19926;-88
2023/05/04 04:21:16;;;;;;;;;;;;;;;26.31;30.40;98929.50;4992173;28;19926;-87
2023/05/04 04:23:43;;;;;;;;;;;;;;;26.32;29.87;98931.91;4998262;28;19975;-88
2023/05/04 04:26:09;;;;;;;;;;;;;;;26.57;29.51;98935.06;4997810;28;19922;-88
2023/05/04 04:28:35;;;;;;;;;;;;;;;26.60;29.87;98934.22;4996955;28;19930;-88
2023/05/04 04:31:02;;;;;;;;;;;;;;;26.76;28.58;98932.72;4998400;28;19921;-88
2023/05/04 04:33:28;;;;;;;;;;;;;;;25.14;31.40;98928.41;4988869;28;19930;-88
2023/05/04 04:35:55;;;;;;;;;;;;;;;25.42;30.46;98938.47;4991573;28;19945;-88
2023/05/04 04:38:21;;;;;;;;;;;;;;;23.99;33.90;98942.41;4987518;28;20049;-88
2023/05/04 04:40:47;;;;;;;;;;;;;;;23.90;33.12;98940.03;4991705;28;19925;-87
2023/05/04 04:43:13;;;;;;;;;;;;;;;24.35;32.59;98946.50;4990331;28;19948;-88
2023/05/04 04:45:40;;;;;;;;;;;;;;;23.63;34.76;98950.25;4989470;28;19922;-89
2023/05/04 04:48:06;;;;;;;;;;;;;;;23.09;34.64;98950.91;4993772;28;19921;-87
2023/05/04 04:50:32;;;;;;;;;;;;;;;24.35;32.45;98949.31;4983792;28;20370;-88
2023/05/04 04:52:58;;;;;;;;;;;;;;;25.24;30.87;98947.16;4993596;28;20000;-88
2023/05/04 04:55:24;;;;;;;;;;;;;;;25.32;31.01;98943.03;5001541;28;20365;-88
2023/05/04 04:57:51;;;;;;;;;;;;;;;25.50;32.08;98951.25;5012346;28;19926;-91
2023/05/04 05:00:18;;;;;;;;;;;;;;;26.24;29.96;98958.59;4989354;28;19925;-88
2023/05/04 05:02:44;;;;;;;;;;;;;;;26.34;30.22;98957.63;5006173;28;20028;-88
2023/05/04 05:05:11;;;;;;;;;;;;;;;26.39;30.46;98956.31;4999049;28;20489;-89
2023/05/04 05:07:37;;;;;;;;;;;;;;;26.48;30.15;98965.00;4978159;28;19925;-88
2023/05/04 05:10:04;;;;;;;;;;;;;;;26.48;29.84;98965.00;4995107;28;19922;-88
2023/05/04 05:12:30;;;;;;;;;;;;;;;26.51;29.73;98952.91;5002368;28;20012;-88
2023/05/04 05:14:56;;;;;;;;;;;;;;;26.52;30.34;98957.28;4998255;28;19922;-88
2023/05/04 05:17:22;;;;;;;;;;;;;;;26.74;29.74;98962.13;4994763;28;20456;-87
2023/05/04 05:19:48;;;;;;;;;;;;;;;26.93;29.20;98959.78;4981242;28;19926;-88
2023/05/04 05:22:15;;;;;;;;;;;;;;;26.96;29.46;98958.91;4994954;28;19922;-88
2023/05/04 05:24:41;;;;;;;;;;;;;;;26.60;30.70;98955.94;4986721;28;19968;-88
2023/05/04 05:27:07;;;;;;;;;;;;;;;26.89;30.44;98959.84;4997719;28;19930;-88
2023/05/04 05:29:34;;;;;;;;;;;;;;;27.26;29.86;98956.66;4996204;28;19922;-88
2023/05/04 05:32:00;;;;;;;;;;;;;;;27.28;30.68;98956.25;4977008;28;19922;-88
2023/05/04 05:34:26;;;;;;;;;;;;;;;27.43;29.43;98954.72;4993847;28;19928;-88
2023/05/04 05:36:52;;;;;;;;;;;;;;;27.49;30.10;98957.84;4984869;28;19928;-90
2023/05/04 05:39:18;;;;;;;;;;;;;;;28.04;28.07;98952.13;4986657;28;20068;-88
2023/05/04 05:41:44;;;;;;;;;;;;;;;27.86;29.01;98960.22;4992274;28;19930;-88
2023/05/04 05:44:10;;;;;;;;;;;;;;;27.56;31.07;98961.31;4994102;28;20016;-87
2023/05/04 05:46:36;;;;;;;;;;;;;;;27.84;27.59;98959.84;4981175;28;19929;-92
2023/05/04 05:49:04;;;;;;;;;;;;;;;27.62;29.54;98965.19;4995546;28;19926;-90
2023/05/04 05:51:30;;;;;;;;;;;;;;;27.90;28.70;98961.72;4991848;28;20385;-88
2023/05/04 05:53:56;;;;;;;;;;;;;;;27.62;30.24;98964.38;4992499;28;20220;-88
2023/05/04 05:56:22;;;;;;;;;;;;;;;27.76;30.71;98959.22;4989337;28;20416;-87
2023/05/04 05:58:51;;;;;;;;;;;;;;;27.80;30.13;98959.94;4993844;28;20029;-95
2023/05/04 06:01:17;;;;;;;;;;;;;;;27.80;30.16;98970.41;4990031;28;19921;-90
2023/05/04 06:03:43;;;;;;;;;;;;;;;28.16;29.63;98970.41;4986778;28;19964;-88
2023/05/04 06:06:09;;;;;;;;;;;;;;;28.27;30.35;98971.72;4973044;28;20296;-91
2023/05/04 06:08:36;;;;;;;;;;;;;;;28.55;28.75;98968.19;4983132;28;20308;-91
2023/05/04 06:11:02;;;;;;;;;;;;;;;28.65;28.34;98974.81;4990863;28;19921;-89
2023/05/04 06:13:28;;;;;;;;;;;;;;;28.15;29.60;98966.78;4985971;28;19965;-87
2023/05/04 06:15:54;;;;;;;;;;;;;;;28.32;29.97;98968.38;4989640;28;19922;-92
2023/05/04 06:18:20;;;;;;;;;;;;;;;28.26;29.87;98975.00;4990360;28;21582;-92
2023/05/04 06:20:46;;;;;;;;;;;;;;;28.41;30.03;98973.41;5007823;28;19922;-93
2023/05/04 06:23:13;;;;;;;;;;;;;;;28.40;28.69;98974.66;4983984;28;19957;-88
2023/05/04 06:25:39;;;;;;;;;;;;;;;28.26;27.86;98972.19;4992103;28;19925;-87
2023/05/04 06:28:06;;;;;;;;;;;;;;;28.18;28.51;98982.06;4987921;28;19926;-94
2023/05/04 06:30:32;;;;;;;;;;;;;;;26.74;31.31;98979.03;4988565;28;19933;-94
2023/05/04 06:32:58;;;;;;;;;;;;;;;26.82;30.38;98978.91;4973810;28;20024;-91
2023/05/04 06:35:24;;;;;;;;;;;;;;;27.29;29.15;98971.91;4997593;28;20408;-88
2023/05/04 06:37:51;;;;;;;;;;;;;;;27.15;29.45;98973.00;4987353;28;19917;-92
2023/05/04 06:40:17;;;;;;;;;;;;;;;25.54;32.90;98977.31;4969759;28;19976;-87
2023/05/04 06:42:43;;;;;;;;;;;;;;;26.15;31.04;98974.41;4989589;28;19921;-88
2023/05/04 06:45:09;;;;;;;;;;;;;;;26.65;29.27;98972.34;4999340;28;19922;-87
2023/05/04 06:47:36;;;;;;;;;;;;;;;27.58;32.65;98969.31;4978637;28;19957;-87
2023/05/04 06:50:08;;;;;;;;;;;;;;;28.78;31.35;98963.59;5007891;28;19952;-89
2023/05/04 06:52:37;;;;;;;;;;;;;;;29.18;26.24;98962.88;4985832;28;19924;-89
2023/05/04 06:55:04;;;;;;;;;;;;;;;27.34;32.21;98960.13;4985953;28;19918;-88
2023/05/04 06:57:30;;;;;;;;;;;;;;;27.75;30.47;98968.91;4986552;28;19977;-88
2023/05/04 06:59:56;;;;;;;;;;;;;;;28.31;27.17;98966.78;4989691;28;20517;-90
2023/05/04 07:02:22;;;;;;;;;;;;;;;28.35;28.26;98966.72;4994532;28;19941;-90
2023/05/04 07:04:49;;;;;;;;;;;;;;;28.48;28.99;98968.38;4971014;28;19944;-87
2023/05/04 07:07:15;;;;;;;;;;;;;;;28.60;25.56;98964.06;4999425;28;19983;-87
2023/05/04 07:09:42;;;;;;;;;;;;;;;28.08;27.26;98967.75;4990482;28;19933;-88
2023/05/04 07:12:08;;;;;;;;;;;;;;;27.29;30.49;98963.47;4994419;28;19922;-88
2023/05/04 07:14:34;;;;;;;;;;;;;;;27.86;30.47;98963.03;4989435;28;20026;-87
2023/05/04 07:17:00;;;;;;;;;;;;;;;28.86;30.31;98962.16;4995548;28;19928;-87
2023/05/04 07:19:26;;;;;;;;;;;;;;;29.68;28.22;98962.19;4972732;28;20296;-89
2023/05/04 07:21:52;;;;;;;;;;;;;;;29.92;28.27;98965.53;4987703;28;20024;-87
2023/05/04 07:24:18;;;;;;;;;;;;;;;29.73;25.91;98958.81;4991075;28;20349;-88
2023/05/04 07:26:45;;;;;;;;;;;;;;;29.54;25.52;98951.31;4991500;28;19940;-87
2023/05/04 07:29:11;;;;;;;;;;;;;;;26.53;31.40;98961.72;4972974;28;19925;-89
2023/05/04 07:31:37;;;;;;;;;;;;;;;27.59;30.45;98962.44;4988215;28;19936;-87
2023/05/04 07:34:03;;;;;;;;;;;;;;;28.49;27.49;98957.88;4993222;28;20263;-86
2023/05/04 07:36:29;;;;;;;;;;;;;;;28.34;28.33;98954.59;4994650;28;20701;-85
2023/05/04 07:38:55;;;;;;;;;;;;;;;28.93;27.12;98959.13;4992001;28;19917;-85
2023/05/04 07:41:21;;;;;;;;;;;;;;;29.09;27.19;98962.69;4975468;28;19922;-88
2023/05/04 07:43:47;;;;;;;;;;;;;;;29.28;27.81;98958.94;4996677;28;19933;-88
2023/05/04 07:46:13;;;;;;;;;;;;;;;29.43;25.08;98956.47;4976321;28;19921;-87
2023/05/04 07:48:39;;;;;;;;;;;;;;;29.04;27.43;98963.25;4990891;28;19929;-88
2023/05/04 07:51:11;;;;;;;;;;;;;;;27.24;29.64;98969.59;4995305;28;19961;-86
2023/05/04 07:53:37;;;;;;;;;;;;;;;27.58;28.42;98961.66;4996631;28;20031;-87
2023/05/04 07:56:07;;;;;;;;;;;;;;;25.14;38.63;98973.38;4997253;28;20072;-84
2023/05/04 07:58:33;;;;;;;;;;;;;;;22.35;40.30;98982.66;4990684;28;20385;-88
2023/05/04 08:00:59;;;;;;;;;;;;;;;23.44;34.09;98969.59;4988956;28;19929;-87
2023/05/04 08:03:25;;;;;;;;;;;;;;;24.94;34.89;98971.63;4990224;28;19968;-85
2023/05/04 08:05:51;;;;;;;;;;;;;;;25.53;31.02;98972.13;4994149;28;20024;-86
2023/05/04 08:08:17;;;;;;;;;;;;;;;24.40;36.08;98982.56;4971619;28;19930;-86
2023/05/04 08:10:43;;;;;;;;;;;;;;;23.62;39.09;98970.31;4991736;28;19926;-85
2023/05/04 08:13:09;;;;;;;;;;;;;;;24.33;35.56;98973.41;4987612;28;19921;-84
2023/05/04 08:15:35;;;;;;;;;;;;;;;24.33;34.02;98976.22;4980244;28;19922;-84
2023/05/04 08:18:01;;;;;;;;;;;;;;;23.41;38.70;98968.41;4983518;28;19922;-85
2023/05/04 08:20:27;;;;;;;;;;;;;;;23.53;38.57;98970.72;4989929;28;19926;-86
2023/05/04 08:22:53;;;;;;;;;;;;;;;24.95;29.35;98967.59;4990106;28;19929;-87
2023/05/04 08:25:21;;;;;;;;;;;;;;;24.84;32.53;98970.50;4994648;28;19926;-85
2023/05/04 08:27:47;;;;;;;;;;;;;;;25.48;34.32;98964.16;4985786;28;20390;-85
2023/05/04 08:30:13;;;;;;;;;;;;;;;24.01;32.31;98977.22;4999077;28;20398;-84
2023/05/04 08:32:39;;;;;;;;;;;;;;;23.62;38.19;98970.31;4994838;28;19925;-84
2023/05/04 08:35:06;;;;;;;;;;;;;;;23.42;36.78;98969.19;4990412;28;19922;-85
2023/05/04 08:37:32;;;;;;;;;;;;;;;22.90;36.61;98976.56;4992715;28;20286;-84
2023/05/04 08:39:58;;;;;;;;;;;;;;;22.02;36.17;98983.84;4986785;28;20662;-85
2023/05/04 08:42:28;;;;;;;;;;;;;;;21.62;38.94;98974.97;4990626;28;19929;-86
2023/05/04 08:44:54;;;;;;;;;;;;;;;23.07;32.33;98981.34;4989733;28;20274;-85
2023/05/04 08:47:20;;;;;;;;;;;;;;;24.14;33.72;98983.19;4995652;28;19925;-85
2023/05/04 08:49:47;;;;;;;;;;;;;;;23.96;31.40;98983.28;4997640;28;20439;-84
2023/05/04 08:52:13;;;;;;;;;;;;;;;24.85;26.98;98968.50;4989876;28;19925;-85
2023/05/04 08:54:41;;;;;;;;;;;;;;;23.61;37.45;98972.31;4989945;28;19922;-85
2023/05/04 08:57:08;;;;;;;;;;;;;;;22.41;34.58;98986.63;4972076;28;19992;-85
2023/05/04 08:59:35;;;;;;;;;;;;;;;24.69;28.49;98978.25;4990385;28;19928;-85
2023/05/04 09:02:01;;;;;;;;;;;;;;;26.10;30.02;98972.88;4986692;28;19932;-85
2023/05/04 09:04:29;;;;;;;;;;;;;;;24.72;27.24;98968.19;4989633;28;19997;-85
2023/05/04 09:06:56;;;;;;;;;;;;;;;24.03;38.73;98974.81;4998760;28;20373;-84
2023/05/04 09:09:25;;;;;;;;;;;;;;;24.61;28.27;98973.94;4995422;28;19918;-85
2023/05/04 09:11:51;;;;;;;;;;;;;;;27.27;28.53;98960.28;4996469;28;19936;-85
2023/05/04 09:14:17;;;;;;;;;;;;;;;26.92;31.38;98964.63;4988226;28;20317;-86
2023/05/04 09:16:43;;;;;;;;;;;;;;;24.80;34.52;98955.72;4988609;28;19917;-85
2023/05/04 09:19:19;;;;;;;;;;;;;;;22.33;39.36;98962.69;4979006;28;19928;-86
2023/05/04 09:21:46;;;;;;;;;;;;;;;22.52;39.64;98956.63;4986670;28;20418;-86
2023/05/04 09:24:13;;;;;;;;;;;;;;;23.27;36.36;98958.03;4995447;28;19921;-84
2023/05/04 09:26:39;;;;;;;;;;;;;;;25.29;27.82;98963.56;4992484;28;20332;-85
2023/05/04 09:29:12;;;;;;;;;;;;;;;24.75;34.21;98958.94;5011300;28;19957;-85
2023/05/04 09:31:48;;;;;;;;;;;;;;;23.79;33.34;98964.56;4994286;28;19965;-85
2023/05/04 09:34:15;;;;;;;;;;;;;;;22.12;37.63;98967.47;4984487;28;19925;-85
2023/05/04 09:36:42;;;;;;;;;;;;;;;22.33;39.75;98957.09;4989959;28;19918;-85
2023/05/04 09:39:09;;;;;;;;;;;;;;;22.34;33.20;98955.88;4988417;28;19928;-87
2023/05/04 09:41:35;;;;;;;;;;;;;;;22.76;27.71;98960.63;4991807;28;19922;-87
2023/05/04 09:44:03;;;;;;;;;;;;;;;25.58;27.69;98963.22;4993843;28;19921;-86
2023/05/04 09:46:29;;;;;;;;;;;;;;;24.72;32.31;98954.97;4968837;28;19922;-87
2023/05/04 09:48:55;;;;;;;;;;;;;;;24.22;37.61;98959.47;4991144;28;20004;-86
2023/05/04 09:51:22;;;;;;;;;;;;;;;23.85;36.25;98965.72;4991283;28;19968;-86
2023/05/04 09:53:49;;;;;;;;;;;;;;;24.42;35.33;98957.69;4983306;28;19965;-86
2023/05/04 09:56:18;;;;;;;;;;;;;;;23.96;37.42;98955.25;4986633;28;20301;-86
2023/05/04 09:58:45;;;;;;;;;;;;;;;26.44;30.62;98950.97;4996017;28;19926;-85
2023/05/04 10:01:11;;;;;;;;;;;;;;;25.79;32.91;98937.59;4996995;28;19976;-86
2023/05/04 10:03:37;;;;;;;;;;;;;;;25.00;39.36;98933.41;4982251;28;19936;-90
2023/05/04 10:06:04;;;;;;;;;;;;;;;24.83;32.60;98940.03;4987288;28;20327;-86
2023/05/04 10:08:31;;;;;;;;;;;;;;;22.67;39.21;98935.03;4976712;28;19929;-86
2023/05/04 10:10:57;;;;;;;;;;;;;;;23.21;37.12;98939.25;4987428;28;19935;-87
2023/05/04 10:13:24;;;;;;;;;;;;;;;24.28;37.21;98940.16;4994806;28;19928;-88
2023/05/04 10:15:59;;;;;;;;;;;;;;;25.84;28.34;98920.19;4981512;28;19926;-88
2023/05/04 10:18:40;;;;;;;;;;;;;;;25.18;36.33;98925.56;4981529;28;20008;-87
2023/05/04 10:21:20;;;;;;;;;;;;;;;25.28;36.76;98924.59;4984140;28;20388;-87
2023/05/04 10:24:05;;;;;;;;;;;;;;;24.34;36.53;98916.84;4988732;28;19921;-87
2023/05/04 10:26:38;;;;;;;;;;;;;;;23.98;38.07;98923.97;4988964;28;19929;-87
2023/05/04 10:29:20;;;;;;;;;;;;;;;24.57;36.00;98919.03;4994155;28;19930;-87
2023/05/04 10:31:46;;;;;;;;;;;;;;;24.38;32.82;98911.22;5007715;28;20004;-87
2023/05/04 10:34:22;;;;;;;;;;;;;;;24.27;38.76;98921.75;4996732;28;20435;-87
2023/05/04 10:36:48;;;;;;;;;;;;;;;23.88;40.57;98911.63;4992349;28;19953;-86
2023/05/04 10:39:20;;;;;;;;;;;;;;;23.87;41.09;98906.44;4988766;28;19922;-86
2023/05/04 10:42:00;;;;;;;;;;;;;;;24.32;39.12;98910.84;4995340;28;20022;-87
2023/05/04 10:44:28;;;;;;;;;;;;;;;23.49;39.40;98915.91;4986858;28;20374;-87
2023/05/04 10:46:57;;;;;;;;;;;;;;;24.29;34.47;98908.91;4983875;28;20016;-86
2023/05/04 10:49:23;;;;;;;;;;;;;;;24.74;33.43;98909.59;4991359;28;20374;-86
2023/05/04 10:51:50;;;;;;;;;;;;;;;25.52;28.12;98909.44;4989748;28;20393;-86
2023/05/04 10:54:18;;;;;;;;;;;;;;;26.53;27.20;98899.75;4984867;28;20082;-86
2023/05/04 10:56:44;;;;;;;;;;;;;;;26.01;35.56;98905.06;4985159;28;19932;-86
2023/05/04 10:59:11;;;;;;;;;;;;;;;24.64;37.47;98899.31;4987576;28;19922;-88
2023/05/04 11:01:42;;;;;;;;;;;;;;;25.07;36.70;98893.97;4989042;28;19946;-87
2023/05/04 11:04:16;;;;;;;;;;;;;;;24.34;38.45;98885.19;4970139;28;19969;-86
2023/05/04 11:06:45;;;;;;;;;;;;;;;23.51;38.51;98896.66;4985245;28;19973;-87
2023/05/04 11:09:12;;;;;;;;;;;;;;;24.87;30.33;98888.22;4967607;28;20298;-87
2023/05/04 11:11:38;;;;;;;;;;;;;;;26.73;28.80;98883.66;4989216;28;20005;-87
2023/05/04 11:14:04;;;;;;;;;;;;;;;27.80;27.26;98885.75;4987104;28;20815;-87
2023/05/04 11:16:30;;;;;;;;;;;;;;;27.76;28.28;98880.19;4987769;28;19921;-88
2023/05/04 11:19:06;;;;;;;;;;;;;;;27.20;35.25;98870.19;4986618;28;19926;-87
2023/05/04 11:21:32;;;;;;;;;;;;;;;28.03;27.59;98869.47;4985939;28;19929;-87
2023/05/04 11:23:59;;;;;;;;;;;;;;;27.32;35.65;98883.63;4988861;28;19922;-87
2023/05/04 11:26:27;;;;;;;;;;;;;;;25.66;37.23;98889.56;4988067;28;20471;-87
2023/05/04 11:28:53;;;;;;;;;;;;;;;24.71;39.04;98877.53;4987726;28;19933;-87
2023/05/04 11:31:20;;;;;;;;;;;;;;;24.35;35.67;98881.16;4986832;28;19929;-86
2023/05/04 11:33:53;;;;;;;;;;;;;;;24.16;37.66;98873.31;4994338;28;20393;-87
2023/05/04 11:36:23;;;;;;;;;;;;;;;25.40;31.04;98871.44;4993462;28;19921;-86
2023/05/04 11:38:49;;;;;;;;;;;;;;;25.49;32.76;98861.69;4998082;28;19928;-88
2023/05/04 11:41:15;;;;;;;;;;;;;;;25.65;32.96;98857.00;4989189;28;20068;-86
2023/05/04 11:43:43;;;;;;;;;;;;;;;25.55;34.42;98851.56;4994817;28;19964;-87
2023/05/04 11:46:10;;;;;;;;;;;;;;;23.62;40.81;98856.13;4987566;28;19926;-87
2023/05/04 11:48:37;;;;;;;;;;;;;;;23.94;40.61;98853.84;4993471;28;20032;-87
2023/05/04 11:51:04;;;;;;;;;;;;;;;24.32;38.35;98859.56;4989379;28;19992;-87
2023/05/04 11:53:37;;;;;;;;;;;;;;;25.07;33.33;98852.63;4976625;28;19922;-87
2023/05/04 11:56:04;;;;;;;;;;;;;;;26.46;28.63;98854.81;4993098;28;19960;-87
2023/05/04 11:58:30;;;;;;;;;;;;;;;28.13;27.47;98842.19;4989063;28;20020;-87
2023/05/04 12:00:57;;;;;;;;;;;;;;;28.56;27.16;98836.97;5003662;28;19925;-87
2023/05/04 12:03:26;;;;;;;;;;;;;;;27.07;28.60;98846.75;4986941;28;19925;-87
2023/05/04 12:05:53;;;;;;;;;;;;;;;25.96;32.61;98855.69;4981612;28;20400;-86
2023/05/04 12:08:32;;;;;;;;;;;;;;;25.68;37.39;98856.16;4999851;28;19953;-86
2023/05/04 12:11:08;;;;;;;;;;;;;;;26.26;33.05;98851.97;4993985;28;19922;-86
2023/05/04 12:13:34;;;;;;;;;;;;;;;26.20;29.20;98853.69;4997091;28;20300;-86
2023/05/04 12:16:14;;;;;;;;;;;;;;;27.15;32.71;98840.50;4981086;28;20401;-88
2023/05/04 12:18:41;;;;;;;;;;;;;;;27.07;29.13;98830.59;4981689;28;20382;-87
2023/05/04 12:21:07;;;;;;;;;;;;;;;29.28;26.37;98828.03;4991727;28;19922;-89
2023/05/04 12:23:35;;;;;;;;;;;;;;;30.00;25.02;98839.41;4993616;28;19922;-88
2023/05/04 12:26:02;;;;;;;;;;;;;;;26.17;31.98;98834.03;4972683;28;19930;-88
2023/05/04 12:28:28;;;;;;;;;;;;;;;24.76;39.47;98839.81;4980726;28;20004;-86
2023/05/04 12:30:55;;;;;;;;;;;;;;;24.74;38.97;98837.38;4994106;28;20666;-86
2023/05/04 12:33:22;;;;;;;;;;;;;;;24.79;34.07;98821.31;4994801;28;20250;-86
2023/05/04 12:35:48;;;;;;;;;;;;;;;24.35;36.40;98830.63;4998014;28;20034;-89
2023/05/04 12:38:14;;;;;;;;;;;;;;;25.67;30.75;98831.28;4986444;28;19937;-85
2023/05/04 12:40:41;;;;;;;;;;;;;;;26.72;37.43;98814.47;4987555;28;20000;-84
2023/05/04 12:43:07;;;;;;;;;;;;;;;26.50;34.72;98822.53;4974609;28;20177;-85
2023/05/04 12:45:33;;;;;;;;;;;;;;;26.66;31.20;98822.59;4988319;28;20013;-86
2023/05/04 12:47:59;;;;;;;;;;;;;;;25.46;35.90;98826.81;4981161;28;20069;-84